This is the latest recevied weather packets stored in our database for station/object N4WFF. If no packets are shown the sender has not sent any weather packets the latest 10 day(s).
| Time | Temp. | Humidity | Pressure | Rain* | Wind** | Luminosity | Snow |
|---|---|---|---|---|---|---|---|
| 1777565756 | 22.22° C | 82% | 1013 hPa | 0 mm | - | 326 W/m² | - |
| 1777565456 | 22.22° C | 82% | 1013.3 hPa | 0 mm | - | 153 W/m² | - |
| 1777565155 | 22.22° C | 82% | 1012.9 hPa | 0 mm | - | 162 W/m² | - |
| 1777564856 | 22.78° C | 82% | 1012.7 hPa | 0 mm | - | 324 W/m² | - |
| 1777564555 | 22.78° C | 80% | 1012.6 hPa | 0 mm | - | 634 W/m² | - |
| 1777564256 | 22.22° C | 79% | 1012.5 hPa | 0 mm | - | 706 W/m² | - |
| 1777563957 | 21.67° C | 83% | 1012.5 hPa | 0 mm | - | 663 W/m² | - |
| 1777563655 | 21.67° C | 82% | 1012.6 hPa | 0 mm | - | 460 W/m² | - |
| 1777563355 | 21.67° C | 83% | 1012.7 hPa | 0 mm | - | 685 W/m² | - |
| 1777563055 | 21.11° C | 86% | 1012.7 hPa | 0 mm | - | 634 W/m² | - |
| 1777562756 | 21.67° C | 86% | 1012.8 hPa | 0 mm | - | 387 W/m² | - |
| 1777562457 | 21.67° C | 84% | 1012.9 hPa | 0 mm | - | 377 W/m² | - |
| 1777562155 | 21.67° C | 84% | 1012.9 hPa | 0 mm | - | 286 W/m² | - |
| 1777561855 | 21.11° C | 86% | 1013 hPa | 0 mm | - | 733 W/m² | - |
| 1777561556 | 20.56° C | 87% | 1013.1 hPa | 0 mm | - | 632 W/m² | - |
| 1777561257 | 20.56° C | 88% | 1013.1 hPa | 0 mm | - | 390 W/m² | - |
| 1777560957 | 20.56° C | 88% | 1013.4 hPa | 0 mm | - | 312 W/m² | - |
| 1777560656 | 20.56° C | 89% | 1013.4 hPa | 0 mm | - | 429 W/m² | - |
| 1777560355 | 20.56° C | 88% | 1013.1 hPa | 0 mm | - | 374 W/m² | - |
| 1777560056 | 20.56° C | 88% | 1012.9 hPa | 0 mm | - | 361 W/m² | - |
| 1777559756 | 20.56° C | 89% | 1013.1 hPa | 0 mm | - | 409 W/m² | - |
| 1777559455 | 20.56° C | 89% | 1013.1 hPa | 0 mm | - | 550 W/m² | - |
| 1777559156 | 20° C | 90% | 1013 hPa | 0 mm | - | 469 W/m² | - |
| 1777558856 | 20.56° C | 89% | 1012.7 hPa | 0 mm | - | 175 W/m² | - |
| 1777558557 | 20.56° C | 89% | 1012.7 hPa | 0 mm | - | 277 W/m² | - |
* Rain latest hour (hover to see other rain measurements)
** Current wind speed in m/s (hover to see current wind gust speed)